KGED/GED METAR and TAF weather

Enter ICAO airport designator
Station Type Date Time Source
KGED METAR 2020/09/30 13:54 UTC NOAA

KGED 301354Z AUTO 28008KT 10SM FEW020 18/14 A2984 RMK AO2 SLP104 T01780139 $


Station Type Date Time Source
KGED Decoded METAR 2020/09/30 13:54 UTC NOAA

GEORGETOWN SUSSEX CO AIRPORT , DE, United States (KGED) 38-41N 075-22W 19M
Sep 30, 2020 - 09:54 AM EDT / 2020.09.30 1354 UTC
Wind: from the W (280 degrees) at 9 MPH (8 KT):0
Visibility: 10 mile(s):0
Sky conditions: mostly clear
Temperature: 64.0 F (17.8 C)
Dew Point: 57.0 F (13.9 C)
Relative Humidity: 77%
Pressure (altimeter): 29.84 in. Hg (1010 hPa)
ob: KGED 301354Z AUTO 28008KT 10SM FEW020 18/14 A2984 RMK AO2 SLP104 T01780139
cycle: 14

Station Type Date Time Source
KGED TAF UTC NOAA

Error!

Example: see airport list